Time;durP1;ratioP1;P1;durP2;ratioP2;P2;SDS_P1;SDS_P2;PMS_P1;PMS_P2;Temp;Humidity;BMP_temperature;BMP_pressure;BME280_temperature;BME280_humidity;BME280_pressure;Samples;Min_cycle;Max_cycle;Signal;HPM_P1;HPM_P2
2021/12/05 00:18:32;;;;;;;50.60;18.83;;;1.70;99.90;;;;;;4248384;29;655510;-72
2021/12/05 00:24:31;;;;;;;51.30;18.48;;;1.70;99.90;;;;;;4247960;29;655959;-72
2021/12/05 00:27:26;;;;;;;44.17;15.53;;;1.70;99.90;;;;;;4253096;29;656138;-72
2021/12/05 00:30:34;;;;;;;39.85;15.57;;;1.60;1.00;;;;;;4248553;29;655695;-72
2021/12/05 00:33:31;;;;;;;33.33;13.60;;;1.60;1.00;;;;;;4254477;29;655042;-71
2021/12/05 00:43:24;;;;;;;31.60;11.93;;;1.70;99.90;;;;;;4241769;29;654364;-71
2021/12/05 00:52:39;;;;;;;25.70;10.97;;;1.80;1.00;;;;;;4298610;28;654935;-72
2021/12/05 00:55:50;;;;;;;30.50;10.97;;;1.80;99.90;;;;;;4340935;28;655088;-72
2021/12/05 01:05:15;;;;;;;22.57;9.33;;;1.80;1.00;;;;;;4365966;28;654358;-71
2021/12/05 01:08:17;;;;;;;27.80;10.10;;;1.80;1.00;;;;;;4347224;28;653544;-72
2021/12/05 01:11:21;;;;;;;25.40;8.03;;;1.80;1.00;;;;;;4370380;28;654631;-72
2021/12/05 01:14:22;;;;;;;25.47;9.67;;;1.70;27.50;;;;;;4408780;28;653267;-72
2021/12/05 01:17:11;;;;;;;23.57;8.73;;;1.70;1.00;;;;;;4428225;28;654327;-72
2021/12/05 01:19:58;;;;;;;23.30;9.50;;;1.70;1.00;;;;;;4445730;28;654146;-72
2021/12/05 01:25:54;;;;;;;24.00;9.27;;;1.80;1.00;;;;;;4388997;28;654824;-72
2021/12/05 01:31:56;;;;;;;31.97;11.47;;;1.80;99.90;;;;;;4404080;28;655802;-72
2021/12/05 01:34:57;;;;;;;25.50;9.67;;;1.80;1.00;;;;;;4411035;28;655872;-72
2021/12/05 01:37:59;;;;;;;33.67;10.40;;;1.80;99.90;;;;;;4408859;28;653390;-72
2021/12/05 01:41:03;;;;;;;26.50;10.07;;;1.80;1.00;;;;;;4409630;28;655218;-72
2021/12/05 01:47:49;;;;;;;20.55;7.60;;;1.80;1.00;;;;;;4351699;28;654309;-72
2021/12/05 01:51:04;;;;;;;23.40;8.50;;;1.80;1.00;;;;;;4342759;28;654197;-72
2021/12/05 01:54:17;;;;;;;20.83;7.70;;;1.80;1.00;;;;;;4338002;28;654459;-71
2021/12/05 01:57:39;;;;;;;21.63;7.15;;;1.80;1.00;;;;;;4379268;28;654318;-72
2021/12/05 02:16:18;;;;;;;18.00;6.73;;;1.90;1.00;;;;;;4306520;29;654970;-72
2021/12/05 02:31:42;;;;;;;14.50;5.97;;;1.70;99.90;;;;;;4273606;29;654821;-71
2021/12/05 02:34:40;;;;;;;15.17;6.00;;;1.70;99.90;;;;;;4268640;29;654386;-71
2021/12/05 02:37:53;;;;;;;13.37;5.20;;;1.70;99.90;;;;;;4250013;29;654485;-71
2021/12/05 02:40:52;;;;;;;11.07;4.90;;;1.60;99.90;;;;;;4262047;29;654496;-71
2021/12/05 02:43:44;;;;;;;14.10;5.70;;;1.60;99.90;;;;;;4297116;28;654645;-72
2021/12/05 02:46:31;;;;;;;14.33;5.63;;;1.70;99.90;;;;;;4302642;28;654663;-72
2021/12/05 02:49:19;;;;;;;15.27;6.13;;;1.80;99.90;;;;;;4324746;28;653950;-72
2021/12/05 02:52:09;;;;;;;14.20;5.80;;;1.90;99.90;;;;;;4300800;28;656019;-71
2021/12/05 02:55:06;;;;;;;17.77;6.80;;;1.80;99.90;;;;;;4309294;28;655643;-72
2021/12/05 02:57:57;;;;;;;16.63;6.53;;;1.80;99.90;;;;;;4344495;28;655201;-71
2021/12/05 03:00:54;;;;;;;19.67;6.37;;;1.80;99.90;;;;;;4346797;28;654083;-72
2021/12/05 03:03:42;;;;;;;17.53;6.77;;;1.70;1.00;;;;;;4353496;28;655131;-72
2021/12/05 03:06:32;;;;;;;19.50;7.20;;;1.60;1.00;;;;;;4374006;28;653471;-72
2021/12/05 03:09:20;;;;;;;18.57;7.83;;;1.50;1.00;;;;;;4383792;28;653125;-72
2021/12/05 03:12:16;;;;;;;18.63;7.20;;;1.40;1.00;;;;;;4394129;28;653472;-72
2021/12/05 03:15:06;;;;;;;17.10;7.17;;;1.30;1.00;;;;;;4409235;28;654182;-72
2021/12/05 03:17:54;;;;;;;19.13;6.57;;;1.20;1.00;;;;;;4392478;28;654901;-72
2021/12/05 03:20:42;;;;;;;17.63;7.47;;;1.10;1.00;;;;;;4407505;28;653739;-72
2021/12/05 03:23:29;;;;;;;17.77;7.17;;;1.10;1.00;;;;;;4421085;28;653972;-72
2021/12/05 03:26:20;;;;;;;21.93;7.87;;;1.10;1.00;;;;;;4404809;28;654495;-72
2021/12/05 03:29:11;;;;;;;19.00;8.07;;;1.10;1.00;;;;;;4398250;28;653755;-71
2021/12/05 03:31:58;;;;;;;19.23;8.13;;;1.10;1.00;;;;;;4407734;28;653652;-72
2021/12/05 03:34:46;;;;;;;18.53;7.73;;;1.10;1.00;;;;;;4425933;28;653171;-72
2021/12/05 03:37:34;;;;;;;25.50;9.97;;;1.10;1.00;;;;;;4442810;28;653520;-72
2021/12/05 03:40:23;;;;;;;22.58;9.02;;;1.10;1.00;;;;;;4413339;28;653397;-72
2021/12/05 03:43:14;;;;;;;25.83;9.43;;;1.10;1.00;;;;;;4411928;28;654184;-72
2021/12/05 03:46:03;;;;;;;28.37;10.27;;;1.10;1.00;;;;;;4416211;28;653661;-72
2021/12/05 03:48:53;;;;;;;27.17;11.07;;;1.10;1.00;;;;;;4418715;28;654442;-72
2021/12/05 03:51:43;;;;;;;27.90;10.57;;;1.00;1.00;;;;;;4424067;28;654714;-72
2021/12/05 03:54:30;;;;;;;25.03;10.83;;;1.00;1.00;;;;;;4416950;28;654453;-72
2021/12/05 03:57:18;;;;;;;26.00;10.50;;;1.00;1.00;;;;;;4429471;28;655624;-72
2021/12/05 04:00:07;;;;;;;21.83;9.63;;;0.90;1.00;;;;;;4409690;28;654429;-72
2021/12/05 04:02:57;;;;;;;23.80;10.03;;;0.90;1.00;;;;;;4435584;28;653681;-72
2021/12/05 04:05:45;;;;;;;21.33;9.77;;;0.90;1.00;;;;;;4410631;28;654383;-72
2021/12/05 04:08:33;;;;;;;24.30;10.20;;;0.90;1.00;;;;;;4422676;28;653875;-72
2021/12/05 04:11:25;;;;;;;26.13;10.43;;;0.80;1.00;;;;;;4426770;28;654714;-72
2021/12/05 04:14:14;;;;;;;27.07;10.40;;;0.80;1.00;;;;;;4414142;28;655506;-72
2021/12/05 04:17:02;;;;;;;24.43;9.23;;;0.80;1.00;;;;;;4416000;28;654782;-71
2021/12/05 04:19:51;;;;;;;25.40;10.20;;;0.80;1.00;;;;;;4450237;28;653002;-72
2021/12/05 04:22:39;;;;;;;26.03;10.17;;;0.70;1.00;;;;;;4421202;28;655067;-72
2021/12/05 04:25:26;;;;;;;25.40;10.83;;;0.70;1.00;;;;;;4410843;28;654389;-72
2021/12/05 04:28:14;;;;;;;26.17;11.17;;;0.60;1.00;;;;;;4429562;28;654730;-71
2021/12/05 04:31:02;;;;;;;25.98;11.13;;;0.60;1.00;;;;;;4424164;28;654578;-72
2021/12/05 04:33:50;;;;;;;24.87;10.93;;;0.50;1.00;;;;;;4431668;28;654664;-72
2021/12/05 04:36:39;;;;;;;29.27;11.43;;;0.50;1.00;;;;;;4414452;28;654868;-72
2021/12/05 04:39:28;;;;;;;27.03;11.37;;;0.40;1.00;;;;;;4420285;28;654873;-72
2021/12/05 04:42:16;;;;;;;28.25;11.95;;;0.40;1.00;;;;;;4410326;28;654988;-72
2021/12/05 04:45:04;;;;;;;28.60;11.63;;;0.30;1.00;;;;;;4440684;28;654867;-71
2021/12/05 04:47:51;;;;;;;42.27;14.00;;;0.30;1.00;;;;;;4426359;28;654447;-72
2021/12/05 04:50:40;;;;;;;27.17;12.57;;;0.30;1.00;;;;;;4433889;28;655903;-72
2021/12/05 04:53:29;;;;;;;29.83;11.97;;;0.20;1.00;;;;;;4420096;28;655505;-72
2021/12/05 04:56:18;;;;;;;38.90;11.87;;;0.30;1.00;;;;;;4415291;28;654352;-72
2021/12/05 04:59:11;;;;;;;32.90;12.23;;;0.20;1.00;;;;;;4431221;28;654430;-72
2021/12/05 05:01:59;;;;;;;24.37;10.67;;;0.20;1.00;;;;;;4410482;28;654513;-72
2021/12/05 05:04:48;;;;;;;25.13;10.48;;;0.20;1.00;;;;;;4424784;28;654899;-72
2021/12/05 05:07:37;;;;;;;31.47;11.83;;;0.20;1.00;;;;;;4426825;28;654485;-72
2021/12/05 05:10:29;;;;;;;28.87;12.43;;;0.20;1.00;;;;;;4432702;28;654376;-71
2021/12/05 05:13:16;;;;;;;29.27;11.77;;;0.10;3.90;;;;;;4412698;28;654225;-72
2021/12/05 05:16:06;;;;;;;31.67;13.77;;;0.10;10.30;;;;;;4445183;28;654467;-72
2021/12/05 05:18:57;;;;;;;33.75;13.82;;;0.20;14.80;;;;;;4411676;28;655866;-72
2021/12/05 05:21:50;;;;;;;32.77;14.20;;;0.20;19.80;;;;;;4410663;28;655181;-71
2021/12/05 05:28:11;;;;;;;32.28;13.57;;;0.20;28.60;;;;;;4400157;28;655461;-71
2021/12/05 05:40:25;;;;;;;21.23;9.77;;;0.20;77.60;;;;;;4403092;28;656638;-71
2021/12/05 05:43:35;;;;;;;18.23;8.98;;;0.20;88.80;;;;;;4422312;28;654854;-72
2021/12/05 05:46:26;;;;;;;20.77;9.80;;;0.20;92.90;;;;;;4393773;28;654601;-72
2021/12/05 05:49:16;;;;;;;24.00;10.40;;;0.30;98.20;;;;;;4416446;28;655188;-71
2021/12/05 05:52:04;;;;;;;23.60;10.73;;;0.30;99.90;;;;;;4416714;28;656001;-71
2021/12/05 05:54:54;;;;;;;22.93;10.47;;;0.30;99.90;;;;;;4424828;28;656036;-71
2021/12/05 05:57:46;;;;;;;24.77;11.17;;;0.30;99.90;;;;;;4414007;28;657349;-72
2021/12/05 06:00:40;;;;;;;24.10;10.83;;;0.30;99.90;;;;;;4418857;28;656151;-72
2021/12/05 06:03:28;;;;;;;27.57;11.60;;;0.30;99.90;;;;;;4414838;28;655562;-71
2021/12/05 06:06:16;;;;;;;26.07;12.53;;;0.30;99.90;;;;;;4428408;28;655606;-71
2021/12/05 06:09:04;;;;;;;24.43;11.90;;;0.40;99.90;;;;;;4442217;28;656630;-72
2021/12/05 06:11:51;;;;;;;27.83;12.03;;;0.40;99.90;;;;;;4425557;28;655572;-72
2021/12/05 06:14:40;;;;;;;23.80;11.20;;;0.40;99.90;;;;;;4446697;28;655529;-71
2021/12/05 06:17:29;;;;;;;29.03;12.20;;;0.40;99.90;;;;;;4418644;28;656385;-71
2021/12/05 06:20:18;;;;;;;26.33;12.10;;;0.40;99.90;;;;;;4409939;28;656596;-71
2021/12/05 06:23:06;;;;;;;26.37;11.57;;;0.40;99.90;;;;;;4425416;28;655543;-72
2021/12/05 06:25:54;;;;;;;23.97;12.47;;;0.50;99.90;;;;;;4433510;28;656038;-71
2021/12/05 06:28:44;;;;;;;22.70;10.70;;;0.50;99.90;;;;;;4422219;28;655965;-71
2021/12/05 06:31:48;;;;;;;27.23;11.73;;;0.50;99.90;;;;;;4410228;28;655369;-71
2021/12/05 06:37:49;;;;;;;23.30;11.60;;;0.60;99.90;;;;;;4392351;28;655707;-71
2021/12/05 06:40:57;;;;;;;27.67;13.43;;;0.60;99.90;;;;;;4381557;28;655957;-71
2021/12/05 06:46:50;;;;;;;27.10;12.40;;;0.60;99.90;;;;;;4408360;28;655630;-72
2021/12/05 06:49:39;;;;;;;28.97;13.57;;;0.60;99.90;;;;;;4405034;28;656673;-72
2021/12/05 06:52:27;;;;;;;26.77;12.18;;;0.60;99.90;;;;;;4413155;28;655835;-72
2021/12/05 06:55:15;;;;;;;24.87;11.00;;;0.60;99.90;;;;;;4441415;28;655986;-71
2021/12/05 06:58:03;;;;;;;22.63;10.97;;;0.60;99.90;;;;;;4416003;28;656983;-71
2021/12/05 07:00:51;;;;;;;26.20;11.87;;;0.70;99.90;;;;;;4417562;28;655647;-71
2021/12/05 07:03:41;;;;;;;22.73;9.97;;;0.70;99.90;;;;;;4445876;28;656261;-71
2021/12/05 07:06:31;;;;;;;21.47;11.33;;;0.70;99.90;;;;;;4417843;28;655232;-71
2021/12/05 07:09:20;;;;;;;23.50;11.67;;;0.70;99.90;;;;;;4414085;28;656045;-72
2021/12/05 07:12:37;;;;;;;28.35;12.95;;;0.70;99.90;;;;;;4414204;28;656496;-72
2021/12/05 07:15:34;;;;;;;27.63;13.43;;;0.70;99.90;;;;;;4407338;28;655353;-71
2021/12/05 07:21:27;;;;;;;27.83;12.93;;;0.80;99.90;;;;;;4407171;28;656096;-72
2021/12/05 07:24:28;;;;;;;25.33;12.80;;;0.80;99.90;;;;;;4408793;28;656248;-71
2021/12/05 07:40:27;;;;;;;33.93;16.33;;;1.00;99.90;;;;;;4366448;28;655579;-71
2021/12/05 07:43:27;;;;;;;33.03;16.47;;;1.00;99.90;;;;;;4356375;28;655306;-71
2021/12/05 07:46:48;;;;;;;36.55;17.77;;;1.00;99.90;;;;;;4361680;28;655902;-71
2021/12/05 07:49:36;;;;;;;37.80;18.47;;;1.10;99.90;;;;;;4342117;28;655747;-72
2021/12/05 07:52:27;;;;;;;36.00;17.83;;;1.10;99.90;;;;;;4391237;28;655834;-72
2021/12/05 07:55:20;;;;;;;42.87;18.27;;;1.20;99.90;;;;;;4362033;28;655774;-71
2021/12/05 07:58:21;;;;;;;36.70;18.00;;;1.20;99.90;;;;;;4328098;28;655872;-72
2021/12/05 08:16:55;;;;;;;51.70;22.73;;;1.40;99.90;;;;;;4338135;28;655793;-71
2021/12/05 08:19:42;;;;;;;52.07;22.93;;;1.40;99.90;;;;;;4374562;28;657046;-71
2021/12/05 08:22:30;;;;;;;50.07;22.77;;;1.40;99.90;;;;;;4434766;28;655783;-71
2021/12/05 08:25:21;;;;;;;47.38;22.25;;;1.50;99.90;;;;;;4411194;28;656297;-71
2021/12/05 08:28:23;;;;;;;64.70;28.23;;;1.50;99.90;;;;;;4415625;28;656091;-71
2021/12/05 08:31:17;;;;;;;64.40;28.13;;;1.60;99.90;;;;;;4384707;28;656409;-71
2021/12/05 08:34:20;;;;;;;56.87;24.77;;;1.50;99.90;;;;;;4404926;28;655598;-71
2021/12/05 08:37:38;;;;;;;44.25;19.58;;;1.60;99.90;;;;;;4408791;28;655658;-71
2021/12/05 08:44:24;;;;;;;37.27;16.13;;;1.60;99.90;;;;;;4327871;28;656112;-70
2021/12/05 09:20:02;;;;;;;35.20;16.47;;;1.50;99.90;;;;;;4312333;28;655356;-66
2021/12/05 09:24:43;;;;;;;44.20;19.50;;;1.60;99.90;;;;;;4346040;28;655468;-67
2021/12/05 09:27:55;;;;;;;45.23;20.00;;;1.60;99.90;;;;;;4347869;28;655528;-67
2021/12/05 09:31:00;;;;;;;50.17;20.80;;;1.70;99.90;;;;;;4371536;28;655963;-67
2021/12/05 09:40:17;;;;;;;39.43;17.80;;;1.70;99.90;;;;;;4337861;28;656788;-67
2021/12/05 10:11:10;;;;;;;39.58;18.65;;;1.80;99.90;;;;;;4401490;28;652658;-65
2021/12/05 10:14:16;;;;;;;33.80;15.83;;;1.80;99.90;;;;;;4397431;28;653794;-64
2021/12/05 10:17:38;;;;;;;42.13;18.00;;;1.70;99.90;;;;;;4422769;28;653508;-65
2021/12/05 10:26:44;;;;;;;57.50;25.50;;;1.40;99.90;;;;;;4358490;28;654227;-71
2021/12/05 10:36:05;;;;;;;55.03;24.37;;;1.40;99.90;;;;;;4360754;28;653270;-72
2021/12/05 10:38:57;;;;;;;59.03;25.13;;;1.40;99.90;;;;;;4335133;28;653274;-72
2021/12/05 10:41:59;;;;;;;54.07;24.33;;;1.50;99.90;;;;;;4357881;28;653654;-73
2021/12/05 10:44:47;;;;;;;55.40;22.73;;;1.50;99.90;;;;;;4325833;28;654909;-71
2021/12/05 10:47:39;;;;;;;48.25;20.85;;;1.50;99.90;;;;;;4375151;28;653331;-70
2021/12/05 10:50:31;;;;;;;42.40;18.77;;;1.50;99.90;;;;;;4346829;28;654743;-71
2021/12/05 10:53:41;;;;;;;52.23;21.47;;;1.40;99.90;;;;;;4398853;28;653996;-64
2021/12/05 10:56:29;;;;;;;49.10;20.90;;;1.40;99.90;;;;;;4398277;28;653785;-63
2021/12/05 10:59:19;;;;;;;53.17;22.80;;;1.40;99.90;;;;;;4405989;28;653537;-65
2021/12/05 11:02:08;;;;;;;47.53;24.27;;;1.40;99.90;;;;;;4395686;28;653661;-71
2021/12/05 11:04:56;;;;;;;54.70;22.83;;;1.40;99.90;;;;;;4441091;27;654308;-71
2021/12/05 11:07:44;;;;;;;49.93;23.40;;;1.30;99.90;;;;;;4472206;27;653868;-72
2021/12/05 11:10:43;;;;;;;42.70;20.33;;;1.30;99.90;;;;;;4457942;27;653409;-70
2021/12/05 11:13:31;;;;;;;51.65;22.92;;;1.30;99.90;;;;;;4426885;27;653691;-70
2021/12/05 11:16:49;;;;;;;52.53;23.93;;;1.30;99.90;;;;;;4478834;27;654101;-71
2021/12/05 11:19:39;;;;;;;50.20;23.10;;;1.30;99.90;;;;;;4454609;27;654563;-71
2021/12/05 11:22:28;;;;;;;53.30;24.30;;;1.40;99.90;;;;;;4454765;27;653730;-71
2021/12/05 11:25:17;;;;;;;54.08;24.05;;;1.30;99.90;;;;;;4460090;27;653303;-71
2021/12/05 11:28:08;;;;;;;67.20;28.87;;;1.40;99.90;;;;;;4477310;27;654614;-71
2021/12/05 11:30:58;;;;;;;54.30;24.43;;;1.40;99.90;;;;;;4432585;27;653864;-71
2021/12/05 11:33:49;;;;;;;51.93;23.93;;;1.40;99.90;;;;;;4454424;27;653290;-71
2021/12/05 11:36:38;;;;;;;44.33;21.77;;;1.40;99.90;;;;;;4457908;27;653273;-71
2021/12/05 11:39:26;;;;;;;52.90;21.17;;;1.50;99.90;;;;;;4461514;27;653409;-71
2021/12/05 11:42:18;;;;;;;41.63;19.80;;;1.50;99.90;;;;;;4476861;27;654203;-71
2021/12/05 11:45:07;;;;;;;40.00;18.63;;;1.50;99.90;;;;;;4428430;27;653972;-70
2021/12/05 11:47:55;;;;;;;44.20;20.00;;;1.50;99.90;;;;;;4477218;27;653551;-70
2021/12/05 11:50:44;;;;;;;40.87;16.87;;;1.50;99.90;;;;;;4457790;27;653958;-71
2021/12/05 11:53:38;;;;;;;39.93;18.87;;;1.40;99.90;;;;;;4451263;28;653959;-71
2021/12/05 11:56:40;;;;;;;36.83;18.43;;;1.50;99.90;;;;;;4464422;27;653737;-71
2021/12/05 11:59:29;;;;;;;41.50;19.23;;;1.50;99.90;;;;;;4441657;27;654139;-71
2021/12/05 12:02:17;;;;;;;39.60;19.13;;;1.50;99.90;;;;;;4460483;27;653409;-71
2021/12/05 12:05:08;;;;;;;40.37;19.70;;;1.50;99.90;;;;;;4479368;27;653204;-71
2021/12/05 12:08:05;;;;;;;36.97;19.13;;;1.50;99.90;;;;;;4474411;27;653438;-71
2021/12/05 12:10:57;;;;;;;31.03;15.40;;;1.50;99.90;;;;;;4472611;27;653658;-71
2021/12/05 12:13:47;;;;;;;35.77;17.53;;;1.50;99.90;;;;;;4452508;27;653707;-71
2021/12/05 12:16:35;;;;;;;40.17;19.10;;;1.50;99.90;;;;;;4453474;27;654318;-70
2021/12/05 12:19:23;;;;;;;29.73;15.10;;;1.50;99.90;;;;;;4452648;27;654200;-72
2021/12/05 12:22:11;;;;;;;38.85;18.52;;;1.50;99.90;;;;;;4460989;27;653135;-71
2021/12/05 12:25:01;;;;;;;25.40;13.20;;;1.60;99.90;;;;;;4476753;27;653594;-71
2021/12/05 12:27:49;;;;;;;35.47;16.20;;;1.60;99.90;;;;;;4458855;27;654261;-69
2021/12/05 12:30:41;;;;;;;34.63;17.07;;;1.60;99.90;;;;;;4458037;27;655058;-70
2021/12/05 12:33:31;;;;;;;38.13;14.73;;;1.60;99.90;;;;;;4449110;27;654407;-72
2021/12/05 12:36:35;;;;;;;37.20;17.63;;;1.60;99.90;;;;;;4454120;27;655153;-71
2021/12/05 12:39:29;;;;;;;31.15;16.15;;;1.50;99.90;;;;;;4453494;27;653644;-71
2021/12/05 12:42:20;;;;;;;31.30;16.23;;;1.50;99.90;;;;;;4453752;27;655116;-71
2021/12/05 12:45:15;;;;;;;31.80;16.70;;;1.50;99.90;;;;;;4458330;27;655011;-70
2021/12/05 12:48:03;;;;;;;23.37;12.37;;;1.50;99.90;;;;;;4454168;27;654130;-70
2021/12/05 12:50:52;;;;;;;32.43;15.70;;;1.60;99.90;;;;;;4460412;27;654625;-71
2021/12/05 12:53:42;;;;;;;28.83;14.97;;;1.50;99.90;;;;;;4480699;27;654488;-71
2021/12/05 12:56:30;;;;;;;29.80;15.30;;;1.60;99.90;;;;;;4452514;27;654810;-71
2021/12/05 12:59:19;;;;;;;26.52;14.45;;;1.60;99.90;;;;;;4456178;27;654908;-70
2021/12/05 13:05:35;;;;;;;29.67;14.73;;;1.60;99.90;;;;;;4429258;27;655783;-71
2021/12/05 13:11:29;;;;;;;29.13;13.70;;;1.70;99.90;;;;;;4449787;27;654731;-69
2021/12/05 13:14:19;;;;;;;33.03;17.23;;;1.70;99.90;;;;;;4455378;27;654788;-70
2021/12/05 13:17:06;;;;;;;31.63;14.83;;;1.60;99.90;;;;;;4455113;27;654726;-70
2021/12/05 13:19:59;;;;;;;33.63;17.40;;;1.60;99.90;;;;;;4478133;27;654740;-71
2021/12/05 13:23:01;;;;;;;29.77;15.03;;;1.60;99.90;;;;;;4429496;27;655092;-70
2021/12/05 13:26:08;;;;;;;31.73;15.47;;;1.50;99.90;;;;;;4453288;27;654780;-70
2021/12/05 13:29:00;;;;;;;35.43;15.73;;;1.60;99.90;;;;;;4433728;27;655079;-70
2021/12/05 13:31:54;;;;;;;38.37;15.67;;;1.50;99.90;;;;;;4456124;27;655527;-70
2021/12/05 13:34:47;;;;;;;29.37;15.43;;;1.50;99.90;;;;;;4426459;27;654925;-70
2021/12/05 13:37:37;;;;;;;32.58;17.13;;;1.50;99.90;;;;;;4447484;27;654662;-70
2021/12/05 13:40:25;;;;;;;35.93;16.40;;;1.50;99.90;;;;;;4447355;27;655296;-71
2021/12/05 13:43:15;;;;;;;34.43;17.37;;;1.50;99.90;;;;;;4445149;27;655611;-71
2021/12/05 13:46:04;;;;;;;31.20;13.33;;;1.50;99.90;;;;;;4446581;27;655938;-72
2021/12/05 13:48:53;;;;;;;31.87;15.30;;;1.50;99.90;;;;;;4456554;27;654315;-71
2021/12/05 13:51:41;;;;;;;29.80;15.57;;;1.60;99.90;;;;;;4453371;27;654647;-71
2021/12/05 13:54:29;;;;;;;33.57;15.57;;;1.50;99.90;;;;;;4476602;28;655254;-71
2021/12/05 13:57:17;;;;;;;30.97;16.33;;;1.60;99.90;;;;;;4448401;27;655508;-72
2021/12/05 14:00:05;;;;;;;35.63;17.40;;;1.60;99.90;;;;;;4465151;28;654302;-71
2021/12/05 14:02:53;;;;;;;36.37;18.43;;;1.60;99.90;;;;;;4443175;28;656101;-71
2021/12/05 14:05:48;;;;;;;36.80;17.83;;;1.60;99.90;;;;;;4458022;27;654198;-71
2021/12/05 14:08:40;;;;;;;31.67;15.87;;;1.60;99.90;;;;;;4425187;28;654507;-71
2021/12/05 14:11:28;;;;;;;36.33;16.87;;;1.60;99.90;;;;;;4438113;28;655905;-71
2021/12/05 14:14:16;;;;;;;34.40;17.60;;;1.60;99.90;;;;;;4455436;28;655234;-71
2021/12/05 14:17:06;;;;;;;35.63;17.57;;;1.60;99.90;;;;;;4466870;28;655183;-71
2021/12/05 14:19:54;;;;;;;37.67;18.73;;;1.60;99.90;;;;;;4443915;28;655394;-71
2021/12/05 14:22:44;;;;;;;36.47;18.27;;;1.60;99.90;;;;;;4452054;27;655531;-71
2021/12/05 14:25:33;;;;;;;39.47;19.27;;;1.50;99.90;;;;;;4447762;28;654673;-71
2021/12/05 14:28:21;;;;;;;40.47;19.80;;;1.50;99.90;;;;;;4447806;28;654603;-71
2021/12/05 14:31:09;;;;;;;45.80;19.97;;;1.60;99.90;;;;;;4466891;28;654490;-71
2021/12/05 14:33:57;;;;;;;38.23;19.00;;;1.60;99.90;;;;;;4448075;28;654374;-71
2021/12/05 14:36:47;;;;;;;44.47;20.13;;;1.50;99.90;;;;;;4467084;28;654419;-71
2021/12/05 14:39:37;;;;;;;40.60;19.50;;;1.50;99.90;;;;;;4443930;27;654444;-71
2021/12/05 14:42:25;;;;;;;41.30;19.35;;;1.50;99.90;;;;;;4456073;27;654950;-71
2021/12/05 14:45:15;;;;;;;40.97;20.80;;;1.50;99.90;;;;;;4449250;28;655674;-71
2021/12/05 14:48:03;;;;;;;37.40;18.73;;;1.50;99.90;;;;;;4446240;28;655898;-71
2021/12/05 14:50:53;;;;;;;39.70;20.40;;;1.50;99.90;;;;;;4449454;28;656079;-72
2021/12/05 14:53:41;;;;;;;43.87;21.33;;;1.50;99.90;;;;;;4464195;27;655595;-71
2021/12/05 14:56:31;;;;;;;46.20;21.13;;;1.60;99.90;;;;;;4470530;27;655653;-71
2021/12/05 14:59:19;;;;;;;43.77;20.27;;;1.50;99.90;;;;;;4453041;27;655685;-71
2021/12/05 15:02:07;;;;;;;43.17;20.63;;;1.60;99.90;;;;;;4445850;28;655843;-71
2021/12/05 15:04:55;;;;;;;46.23;22.13;;;1.50;99.90;;;;;;4468115;28;655087;-71
2021/12/05 15:07:45;;;;;;;48.10;22.47;;;1.50;99.90;;;;;;4460162;27;656339;-71
2021/12/05 15:10:35;;;;;;;46.20;22.07;;;1.50;99.90;;;;;;4445454;28;656727;-71
2021/12/05 15:13:24;;;;;;;46.60;22.43;;;1.50;99.90;;;;;;4444906;27;657045;-71
2021/12/05 15:16:11;;;;;;;49.13;24.43;;;1.50;99.90;;;;;;4460484;27;656031;-71
2021/12/05 15:18:59;;;;;;;46.57;23.50;;;1.50;99.90;;;;;;4478862;27;655362;-71
2021/12/05 15:21:47;;;;;;;42.30;21.27;;;1.50;99.90;;;;;;4453043;27;655634;-71
2021/12/05 15:24:35;;;;;;;34.33;17.23;;;1.50;99.90;;;;;;4477169;27;656016;-72
2021/12/05 15:27:24;;;;;;;38.10;19.67;;;1.50;99.90;;;;;;4462768;27;656627;-72
2021/12/05 15:30:14;;;;;;;42.28;20.00;;;1.50;99.90;;;;;;4464455;27;655931;-71
2021/12/05 15:33:03;;;;;;;42.00;20.23;;;1.50;99.90;;;;;;4467355;27;655576;-71
2021/12/05 15:35:51;;;;;;;43.93;21.90;;;1.50;99.90;;;;;;4463988;27;656010;-71
2021/12/05 15:38:39;;;;;;;38.67;17.97;;;1.50;99.90;;;;;;4483882;27;656008;-71
2021/12/05 15:41:29;;;;;;;39.90;20.63;;;1.50;99.90;;;;;;4466963;27;656124;-72
2021/12/05 15:44:27;;;;;;;41.70;20.83;;;1.50;99.90;;;;;;4465825;27;656196;-71
2021/12/05 15:47:17;;;;;;;46.10;21.57;;;1.60;99.90;;;;;;4466103;27;655507;-71
2021/12/05 15:50:07;;;;;;;49.53;21.80;;;1.50;99.90;;;;;;4461230;27;655681;-71
2021/12/05 15:52:56;;;;;;;44.08;21.67;;;1.60;99.90;;;;;;4452506;27;655628;-71
2021/12/05 15:55:44;;;;;;;47.73;22.67;;;1.60;99.90;;;;;;4462777;27;655787;-72
2021/12/05 15:58:34;;;;;;;48.93;22.90;;;1.60;99.90;;;;;;4451596;27;655870;-71
2021/12/05 16:01:23;;;;;;;40.63;20.53;;;1.60;99.90;;;;;;4452313;27;656357;-71
2021/12/05 16:04:21;;;;;;;47.67;21.27;;;1.60;99.90;;;;;;4444972;27;655872;-72
2021/12/05 16:07:10;;;;;;;45.27;20.83;;;1.60;99.90;;;;;;4450223;27;655628;-72
2021/12/05 16:10:13;;;;;;;42.67;20.30;;;1.70;99.90;;;;;;4451214;27;657505;-72
2021/12/05 16:13:09;;;;;;;36.70;18.87;;;1.70;99.90;;;;;;4436414;27;655537;-71
2021/12/05 16:15:56;;;;;;;37.33;19.57;;;1.70;99.90;;;;;;4452872;27;656446;-71
2021/12/05 16:18:45;;;;;;;39.90;20.07;;;1.70;99.90;;;;;;4476041;27;655743;-72
2021/12/05 16:21:36;;;;;;;36.92;18.65;;;1.70;99.90;;;;;;4445516;27;655855;-72
2021/12/05 16:24:24;;;;;;;38.67;20.00;;;1.70;99.90;;;;;;4450820;27;656783;-71
2021/12/05 16:27:11;;;;;;;41.90;20.00;;;1.70;99.90;;;;;;4454311;27;655334;-71
2021/12/05 16:29:59;;;;;;;38.27;19.93;;;1.70;99.90;;;;;;4472773;27;655922;-72
2021/12/05 16:32:47;;;;;;;45.88;21.08;;;1.70;99.90;;;;;;4451842;27;655389;-71
2021/12/05 16:35:36;;;;;;;41.00;21.55;;;1.70;99.90;;;;;;4471609;27;655436;-71
2021/12/05 16:38:30;;;;;;;41.13;20.48;;;1.70;99.90;;;;;;4451085;27;656690;-71
2021/12/05 16:41:23;;;;;;;43.73;20.93;;;1.80;99.90;;;;;;4420971;27;656836;-72
2021/12/05 16:44:12;;;;;;;43.15;21.67;;;1.80;99.90;;;;;;4448370;27;655613;-71
2021/12/05 16:47:01;;;;;;;43.90;21.03;;;1.80;99.90;;;;;;4473566;27;656189;-71
2021/12/05 16:49:50;;;;;;;43.47;21.92;;;1.80;99.90;;;;;;4447087;27;656893;-71
2021/12/05 16:52:41;;;;;;;45.23;21.60;;;1.80;99.90;;;;;;4451029;27;657339;-71
2021/12/05 16:55:30;;;;;;;35.20;19.13;;;1.90;99.90;;;;;;4452518;27;656346;-72
2021/12/05 16:58:18;;;;;;;36.07;18.90;;;1.80;99.90;;;;;;4453285;27;656359;-71
2021/12/05 17:01:07;;;;;;;37.10;18.57;;;1.80;99.90;;;;;;4453222;27;655468;-72
2021/12/05 17:03:55;;;;;;;37.07;18.90;;;1.90;99.90;;;;;;4472401;27;655538;-72
2021/12/05 17:06:52;;;;;;;40.73;18.73;;;1.80;99.90;;;;;;4457142;27;656021;-72
2021/12/05 17:09:40;;;;;;;40.97;21.13;;;1.90;99.90;;;;;;4454121;27;656077;-71
2021/12/05 17:12:30;;;;;;;39.27;20.07;;;1.80;99.90;;;;;;4462092;27;655932;-71
2021/12/05 17:15:19;;;;;;;44.13;22.23;;;1.80;99.90;;;;;;4448254;27;656311;-72
2021/12/05 17:18:14;;;;;;;40.70;20.93;;;1.80;99.90;;;;;;4450564;27;655767;-71
2021/12/05 17:21:03;;;;;;;42.80;21.23;;;1.70;99.90;;;;;;4446587;27;656118;-72
2021/12/05 17:23:52;;;;;;;44.73;22.77;;;1.70;99.90;;;;;;4454438;27;655792;-72
2021/12/05 17:26:41;;;;;;;46.03;23.35;;;1.60;99.90;;;;;;4471560;27;655381;-71
2021/12/05 17:29:32;;;;;;;46.80;22.60;;;1.60;99.90;;;;;;4455368;27;655829;-71
2021/12/05 17:32:20;;;;;;;48.50;23.33;;;1.60;99.90;;;;;;4444917;27;656031;-71
2021/12/05 17:35:08;;;;;;;49.80;24.37;;;1.60;99.90;;;;;;4457684;27;656228;-71
2021/12/05 17:37:56;;;;;;;46.00;24.90;;;1.60;99.90;;;;;;4459732;27;655798;-71
2021/12/05 17:40:44;;;;;;;47.13;23.30;;;1.70;99.90;;;;;;4472613;27;655159;-65
2021/12/05 17:43:32;;;;;;;49.87;23.77;;;1.70;99.90;;;;;;4456715;27;655283;-66
2021/12/05 17:46:21;;;;;;;50.80;22.53;;;1.70;99.90;;;;;;4476907;27;656436;-66
2021/12/05 17:49:10;;;;;;;47.63;23.00;;;1.70;99.90;;;;;;4449259;27;655937;-66
2021/12/05 17:51:59;;;;;;;45.72;22.38;;;1.80;99.90;;;;;;4457054;27;655568;-66
2021/12/05 17:54:54;;;;;;;46.70;22.90;;;1.80;99.90;;;;;;4459631;27;655435;-66
2021/12/05 17:57:45;;;;;;;45.07;21.40;;;1.80;99.90;;;;;;4433971;27;656227;-66
2021/12/05 18:00:37;;;;;;;49.53;22.63;;;1.80;99.90;;;;;;4460467;27;655476;-66
2021/12/05 18:03:25;;;;;;;44.93;22.20;;;1.80;99.90;;;;;;4462116;27;655412;-66
2021/12/05 18:06:13;;;;;;;45.10;22.67;;;1.80;99.90;;;;;;4459324;27;656909;-66
2021/12/05 18:09:01;;;;;;;39.07;20.20;;;1.80;99.90;;;;;;4469355;27;655209;-67
2021/12/05 18:11:49;;;;;;;36.70;21.07;;;1.90;99.90;;;;;;4486995;27;656579;-65
2021/12/05 18:14:37;;;;;;;45.00;20.23;;;1.80;99.90;;;;;;4448464;27;656307;-66
2021/12/05 18:17:24;;;;;;;39.83;20.40;;;1.90;99.90;;;;;;4479992;27;655728;-65